sensor_id;sensor_type;location;lat;lon;timestamp;pressure;altitude;pressure_sealevel;temperature;humidity
6020;BME280;3038;51.122;6.840;2023-05-20T05:50:38;101769.22;;;14.22;61.59
6020;BME280;3038;51.122;6.840;2023-05-20T05:53:03;101762.06;;;14.22;61.33
6020;BME280;3038;51.122;6.840;2023-05-20T05:55:28;101761.34;;;14.20;61.34
6020;BME280;3038;51.122;6.840;2023-05-20T05:57:54;101764.03;;;14.20;61.58
6020;BME280;3038;51.122;6.840;2023-05-20T06:00:19;101755.88;;;14.22;61.32
6020;BME280;3038;51.122;6.840;2023-05-20T06:02:46;101759.50;;;14.21;61.17
6020;BME280;3038;51.122;6.840;2023-05-20T06:05:11;101758.44;;;14.31;61.27
6020;BME280;3038;51.122;6.840;2023-05-20T06:07:37;101759.47;;;14.38;60.74
6020;BME280;3038;51.122;6.840;2023-05-20T06:10:02;101759.16;;;14.42;61.46
6020;BME280;3038;51.122;6.840;2023-05-20T06:12:28;101758.66;;;14.46;61.32
6020;BME280;3038;51.122;6.840;2023-05-20T06:14:53;101759.56;;;14.55;60.80
6020;BME280;3038;51.122;6.840;2023-05-20T06:17:18;101752.94;;;14.67;60.94
6020;BME280;3038;51.122;6.840;2023-05-20T06:19:44;101745.63;;;14.77;60.34
6020;BME280;3038;51.122;6.840;2023-05-20T06:22:09;101740.66;;;14.90;59.74
6020;BME280;3038;51.122;6.840;2023-05-20T06:24:34;101741.38;;;15.09;59.87
6020;BME280;3038;51.122;6.840;2023-05-20T06:27:00;101733.38;;;15.33;59.78
6020;BME280;3038;51.122;6.840;2023-05-20T06:29:27;101742.41;;;15.49;58.92
6020;BME280;3038;51.122;6.840;2023-05-20T06:31:53;101742.75;;;15.70;58.35
6020;BME280;3038;51.122;6.840;2023-05-20T06:34:18;101739.59;;;15.83;58.54
6020;BME280;3038;51.122;6.840;2023-05-20T06:36:43;101747.06;;;16.04;58.80
6020;BME280;3038;51.122;6.840;2023-05-20T06:39:09;101749.88;;;16.18;58.09
6020;BME280;3038;51.122;6.840;2023-05-20T06:41:38;101751.03;;;16.24;57.53
6020;BME280;3038;51.122;6.840;2023-05-20T06:44:04;101758.56;;;16.29;57.06
6020;BME280;3038;51.122;6.840;2023-05-20T06:46:30;101764.44;;;16.24;56.99
6020;BME280;3038;51.122;6.840;2023-05-20T06:48:56;101755.94;;;16.12;56.98
6020;BME280;3038;51.122;6.840;2023-05-20T06:51:21;101746.06;;;16.13;56.91
6020;BME280;3038;51.122;6.840;2023-05-20T06:53:46;101744.72;;;16.09;56.75
6020;BME280;3038;51.122;6.840;2023-05-20T06:56:12;101740.69;;;16.05;57.57
6020;BME280;3038;51.122;6.840;2023-05-20T06:58:37;101739.34;;;16.25;57.34
6020;BME280;3038;51.122;6.840;2023-05-20T07:01:02;101741.31;;;16.39;56.79
6020;BME280;3038;51.122;6.840;2023-05-20T07:03:28;101733.97;;;16.25;56.74
6020;BME280;3038;51.122;6.840;2023-05-20T07:05:53;101735.31;;;16.21;57.49
6020;BME280;3038;51.122;6.840;2023-05-20T07:08:19;101734.13;;;16.24;56.60
6020;BME280;3038;51.122;6.840;2023-05-20T07:10:44;101727.22;;;16.29;56.42
6020;BME280;3038;51.122;6.840;2023-05-20T07:13:10;101721.81;;;16.54;56.46
6020;BME280;3038;51.122;6.840;2023-05-20T07:15:36;101731.19;;;16.50;56.51
6020;BME280;3038;51.122;6.840;2023-05-20T07:18:01;101735.56;;;16.42;56.61
6020;BME280;3038;51.122;6.840;2023-05-20T07:20:26;101724.84;;;16.42;56.58
6020;BME280;3038;51.122;6.840;2023-05-20T07:22:52;101724.84;;;16.42;56.76
6020;BME280;3038;51.122;6.840;2023-05-20T07:25:17;101719.84;;;16.39;56.00
6020;BME280;3038;51.122;6.840;2023-05-20T07:27:43;101719.44;;;16.59;56.43
6020;BME280;3038;51.122;6.840;2023-05-20T07:30:08;101715.34;;;16.79;55.68
6020;BME280;3038;51.122;6.840;2023-05-20T07:32:34;101716.50;;;17.08;55.55
6020;BME280;3038;51.122;6.840;2023-05-20T07:35:03;101713.78;;;17.31;55.15
6020;BME280;3038;51.122;6.840;2023-05-20T07:37:28;101708.78;;;17.51;54.73
6020;BME280;3038;51.122;6.840;2023-05-20T07:39:53;101709.97;;;17.48;54.25
6020;BME280;3038;51.122;6.840;2023-05-20T07:42:19;101717.34;;;17.69;54.04
6020;BME280;3038;51.122;6.840;2023-05-20T07:44:44;101711.69;;;17.64;54.44
6020;BME280;3038;51.122;6.840;2023-05-20T07:47:10;101713.44;;;17.57;54.30
6020;BME280;3038;51.122;6.840;2023-05-20T07:49:35;101714.69;;;17.84;53.99
6020;BME280;3038;51.122;6.840;2023-05-20T07:52:00;101711.13;;;18.21;53.34
6020;BME280;3038;51.122;6.840;2023-05-20T07:54:26;101718.72;;;18.03;52.43
6020;BME280;3038;51.122;6.840;2023-05-20T07:56:51;101707.25;;;17.94;53.12
6020;BME280;3038;51.122;6.840;2023-05-20T07:59:17;101710.84;;;18.01;53.09
6020;BME280;3038;51.122;6.840;2023-05-20T08:01:42;101700.72;;;17.88;53.30
6020;BME280;3038;51.122;6.840;2023-05-20T08:04:08;101712.69;;;18.15;53.26
6020;BME280;3038;51.122;6.840;2023-05-20T08:06:33;101704.28;;;18.33;52.36
6020;BME280;3038;51.122;6.840;2023-05-20T08:09:00;101699.88;;;18.32;53.56
6020;BME280;3038;51.122;6.840;2023-05-20T08:11:26;101705.56;;;18.37;52.66
6020;BME280;3038;51.122;6.840;2023-05-20T08:13:51;101710.75;;;18.39;53.42
6020;BME280;3038;51.122;6.840;2023-05-20T08:16:17;101715.66;;;18.50;53.08
6020;BME280;3038;51.122;6.840;2023-05-20T08:18:42;101710.53;;;18.70;52.53
6020;BME280;3038;51.122;6.840;2023-05-20T08:21:08;101696.56;;;18.96;52.37
6020;BME280;3038;51.122;6.840;2023-05-20T08:23:34;101707.06;;;18.91;52.41
6020;BME280;3038;51.122;6.840;2023-05-20T08:26:02;101701.78;;;19.04;52.76
6020;BME280;3038;51.122;6.840;2023-05-20T08:28:29;101707.13;;;18.97;51.86
6020;BME280;3038;51.122;6.840;2023-05-20T08:30:54;101697.19;;;18.98;51.89
6020;BME280;3038;51.122;6.840;2023-05-20T08:33:20;101701.63;;;19.06;51.85
6020;BME280;3038;51.122;6.840;2023-05-20T08:35:47;101700.78;;;19.26;52.15
6020;BME280;3038;51.122;6.840;2023-05-20T08:38:12;101704.94;;;19.29;51.09
6020;BME280;3038;51.122;6.840;2023-05-20T08:40:38;101699.44;;;19.37;50.79
6020;BME280;3038;51.122;6.840;2023-05-20T08:43:04;101701.34;;;19.43;49.90
6020;BME280;3038;51.122;6.840;2023-05-20T08:45:31;101701.34;;;19.43;49.86
6020;BME280;3038;51.122;6.840;2023-05-20T08:47:57;101702.91;;;19.31;50.99
6020;BME280;3038;51.122;6.840;2023-05-20T08:50:23;101699.78;;;19.56;50.41
6020;BME280;3038;51.122;6.840;2023-05-20T08:52:48;101699.75;;;19.49;50.22
6020;BME280;3038;51.122;6.840;2023-05-20T08:55:17;101695.50;;;19.89;50.46
6020;BME280;3038;51.122;6.840;2023-05-20T08:57:48;101688.03;;;19.91;49.73
6020;BME280;3038;51.122;6.840;2023-05-20T09:00:14;101687.41;;;19.89;50.06
6020;BME280;3038;51.122;6.840;2023-05-20T09:02:42;101679.78;;;19.65;50.12
6020;BME280;3038;51.122;6.840;2023-05-20T09:05:09;101690.50;;;19.58;49.32
6020;BME280;3038;51.122;6.840;2023-05-20T09:07:35;101681.75;;;19.56;51.03
6020;BME280;3038;51.122;6.840;2023-05-20T09:10:00;101687.22;;;19.63;49.82
6020;BME280;3038;51.122;6.840;2023-05-20T09:12:26;101684.63;;;19.76;49.62
6020;BME280;3038;51.122;6.840;2023-05-20T09:14:51;101687.19;;;19.84;49.70
6020;BME280;3038;51.122;6.840;2023-05-20T09:17:17;101687.56;;;19.81;50.15
6020;BME280;3038;51.122;6.840;2023-05-20T09:19:42;101691.84;;;19.97;49.89
6020;BME280;3038;51.122;6.840;2023-05-20T09:22:07;101683.63;;;20.12;49.83
6020;BME280;3038;51.122;6.840;2023-05-20T09:24:33;101673.66;;;20.12;48.91
6020;BME280;3038;51.122;6.840;2023-05-20T09:26:58;101696.44;;;20.10;49.47
6020;BME280;3038;51.122;6.840;2023-05-20T09:29:24;101687.63;;;20.22;50.05
6020;BME280;3038;51.122;6.840;2023-05-20T09:31:50;101693.59;;;20.18;48.72
6020;BME280;3038;51.122;6.840;2023-05-20T09:34:16;101688.69;;;19.93;49.43
6020;BME280;3038;51.122;6.840;2023-05-20T09:36:43;101684.34;;;19.92;49.12
6020;BME280;3038;51.122;6.840;2023-05-20T09:39:13;101687.31;;;19.76;49.83
6020;BME280;3038;51.122;6.840;2023-05-20T09:41:56;101687.81;;;19.86;49.58
6020;BME280;3038;51.122;6.840;2023-05-20T09:44:22;101685.91;;;19.80;49.47
6020;BME280;3038;51.122;6.840;2023-05-20T09:46:49;101676.00;;;20.22;49.18
6020;BME280;3038;51.122;6.840;2023-05-20T09:49:15;101684.06;;;20.57;48.83
6020;BME280;3038;51.122;6.840;2023-05-20T09:51:42;101679.31;;;20.72;47.68
6020;BME280;3038;51.122;6.840;2023-05-20T09:54:08;101675.97;;;20.57;48.06
6020;BME280;3038;51.122;6.840;2023-05-20T09:56:35;101678.00;;;20.54;48.35
6020;BME280;3038;51.122;6.840;2023-05-20T09:59:01;101673.53;;;20.88;48.09
6020;BME280;3038;51.122;6.840;2023-05-20T10:01:29;101672.09;;;20.92;47.40
6020;BME280;3038;51.122;6.840;2023-05-20T10:03:55;101673.13;;;20.85;47.74
6020;BME280;3038;51.122;6.840;2023-05-20T10:08:57;101679.41;;;21.25;47.28
6020;BME280;3038;51.122;6.840;2023-05-20T10:12:02;101675.03;;;21.17;47.41
6020;BME280;3038;51.122;6.840;2023-05-20T10:17:20;101681.94;;;21.73;46.06
6020;BME280;3038;51.122;6.840;2023-05-20T10:19:48;101677.34;;;21.73;45.97
6020;BME280;3038;51.122;6.840;2023-05-20T10:22:14;101674.22;;;21.70;46.15
6020;BME280;3038;51.122;6.840;2023-05-20T10:24:57;101676.56;;;21.33;46.77
6020;BME280;3038;51.122;6.840;2023-05-20T10:27:23;101666.94;;;21.04;48.10
6020;BME280;3038;51.122;6.840;2023-05-20T10:29:53;101672.34;;;21.11;47.73
6020;BME280;3038;51.122;6.840;2023-05-20T10:32:26;101667.34;;;21.21;46.62
6020;BME280;3038;51.122;6.840;2023-05-20T10:35:03;101664.25;;;21.04;47.09
6020;BME280;3038;51.122;6.840;2023-05-20T10:37:32;101671.09;;;21.07;47.09
6020;BME280;3038;51.122;6.840;2023-05-20T10:40:08;101672.16;;;21.19;47.33
6020;BME280;3038;51.122;6.840;2023-05-20T10:42:35;101662.81;;;21.35;47.71
6020;BME280;3038;51.122;6.840;2023-05-20T10:45:02;101663.63;;;21.55;46.77
6020;BME280;3038;51.122;6.840;2023-05-20T10:47:28;101674.47;;;21.62;47.54
6020;BME280;3038;51.122;6.840;2023-05-20T10:49:53;101675.72;;;21.52;47.49
6020;BME280;3038;51.122;6.840;2023-05-20T10:52:19;101676.53;;;21.53;47.41
6020;BME280;3038;51.122;6.840;2023-05-20T10:54:58;101665.72;;;21.46;47.14
6020;BME280;3038;51.122;6.840;2023-05-20T10:57:27;101667.81;;;21.31;47.83
6020;BME280;3038;51.122;6.840;2023-05-20T10:59:53;101661.50;;;20.91;48.13
6020;BME280;3038;51.122;6.840;2023-05-20T11:02:19;101673.09;;;20.78;49.23
6020;BME280;3038;51.122;6.840;2023-05-20T11:04:51;101668.44;;;20.45;49.90
6020;BME280;3038;51.122;6.840;2023-05-20T11:07:27;101670.88;;;20.40;49.68
6020;BME280;3038;51.122;6.840;2023-05-20T11:09:53;101669.44;;;20.44;49.35
6020;BME280;3038;51.122;6.840;2023-05-20T11:12:20;101671.00;;;20.19;50.02
6020;BME280;3038;51.122;6.840;2023-05-20T11:14:48;101659.50;;;20.03;50.02
6020;BME280;3038;51.122;6.840;2023-05-20T11:17:13;101668.00;;;20.00;49.98
6020;BME280;3038;51.122;6.840;2023-05-20T11:19:38;101674.97;;;20.23;49.87
6020;BME280;3038;51.122;6.840;2023-05-20T11:22:06;101669.13;;;20.61;49.78
6020;BME280;3038;51.122;6.840;2023-05-20T11:24:32;101657.78;;;20.92;49.63
6020;BME280;3038;51.122;6.840;2023-05-20T11:26:59;101653.63;;;20.96;48.05
6020;BME280;3038;51.122;6.840;2023-05-20T11:29:25;101657.19;;;21.29;48.34
6020;BME280;3038;51.122;6.840;2023-05-20T11:31:51;101658.84;;;21.64;47.56
6020;BME280;3038;51.122;6.840;2023-05-20T11:34:20;101649.06;;;21.76;46.66
6020;BME280;3038;51.122;6.840;2023-05-20T11:36:58;101644.78;;;22.26;46.64
6020;BME280;3038;51.122;6.840;2023-05-20T11:39:24;101632.31;;;23.02;45.36
6020;BME280;3038;51.122;6.840;2023-05-20T11:41:51;101640.47;;;24.44;42.39
6020;BME280;3038;51.122;6.840;2023-05-20T11:44:18;101637.22;;;24.17;41.26
6020;BME280;3038;51.122;6.840;2023-05-20T11:46:46;101625.81;;;23.28;43.20
6020;BME280;3038;51.122;6.840;2023-05-20T11:49:12;101633.06;;;23.09;44.26
6020;BME280;3038;51.122;6.840;2023-05-20T11:51:38;101626.38;;;23.12;43.87
6020;BME280;3038;51.122;6.840;2023-05-20T11:54:05;101620.44;;;23.46;44.00
6020;BME280;3038;51.122;6.840;2023-05-20T11:56:35;101622.44;;;24.13;42.59
6020;BME280;3038;51.122;6.840;2023-05-20T11:59:05;101617.00;;;24.31;41.53
6020;BME280;3038;51.122;6.840;2023-05-20T12:01:38;101609.09;;;24.59;41.47
6020;BME280;3038;51.122;6.840;2023-05-20T12:04:11;101591.69;;;24.37;40.91
6020;BME280;3038;51.122;6.840;2023-05-20T12:06:40;101608.81;;;24.01;43.21
6020;BME280;3038;51.122;6.840;2023-05-20T12:09:07;101606.00;;;24.07;42.38
6020;BME280;3038;51.122;6.840;2023-05-20T12:11:36;101596.25;;;23.70;43.41
6020;BME280;3038;51.122;6.840;2023-05-20T12:14:04;101593.22;;;24.15;42.79
6020;BME280;3038;51.122;6.840;2023-05-20T12:16:33;101595.78;;;23.91;42.70
6020;BME280;3038;51.122;6.840;2023-05-20T12:18:59;101592.75;;;24.18;43.02
6020;BME280;3038;51.122;6.840;2023-05-20T12:21:25;101593.53;;;23.88;43.07
6020;BME280;3038;51.122;6.840;2023-05-20T12:23:50;101601.16;;;23.36;44.39
6020;BME280;3038;51.122;6.840;2023-05-20T12:26:25;101597.63;;;23.11;45.18
6020;BME280;3038;51.122;6.840;2023-05-20T12:28:50;101592.38;;;22.84;45.21
6020;BME280;3038;51.122;6.840;2023-05-20T12:31:16;101594.69;;;22.87;45.81
6020;BME280;3038;51.122;6.840;2023-05-20T12:33:41;101587.34;;;22.94;45.65
6020;BME280;3038;51.122;6.840;2023-05-20T12:36:07;101587.44;;;23.31;45.53
6020;BME280;3038;51.122;6.840;2023-05-20T12:38:33;101578.13;;;23.45;44.45
6020;BME280;3038;51.122;6.840;2023-05-20T12:41:00;101578.69;;;23.29;44.62
6020;BME280;3038;51.122;6.840;2023-05-20T12:43:26;101578.03;;;23.33;44.57
6020;BME280;3038;51.122;6.840;2023-05-20T12:45:52;101572.22;;;23.12;44.99
6020;BME280;3038;51.122;6.840;2023-05-20T12:48:17;101572.97;;;22.94;44.59
6020;BME280;3038;51.122;6.840;2023-05-20T12:50:43;101574.53;;;23.08;45.17
6020;BME280;3038;51.122;6.840;2023-05-20T12:53:08;101575.03;;;23.42;45.18
6020;BME280;3038;51.122;6.840;2023-05-20T12:55:34;101565.81;;;23.24;44.70
6020;BME280;3038;51.122;6.840;2023-05-20T12:57:59;101557.28;;;23.46;44.49
6020;BME280;3038;51.122;6.840;2023-05-20T13:00:25;101558.25;;;24.06;44.07
6020;BME280;3038;51.122;6.840;2023-05-20T13:02:50;101555.78;;;24.88;42.09
6020;BME280;3038;51.122;6.840;2023-05-20T13:05:19;101546.53;;;25.20;42.65
6020;BME280;3038;51.122;6.840;2023-05-20T13:07:44;101546.84;;;25.23;40.82
6020;BME280;3038;51.122;6.840;2023-05-20T13:10:10;101535.03;;;24.41;42.33
6020;BME280;3038;51.122;6.840;2023-05-20T13:12:36;101539.13;;;23.83;43.37
6020;BME280;3038;51.122;6.840;2023-05-20T13:15:02;101540.97;;;23.89;43.33
6020;BME280;3038;51.122;6.840;2023-05-20T13:17:28;101521.88;;;23.96;43.37
6020;BME280;3038;51.122;6.840;2023-05-20T13:19:54;101528.13;;;23.78;43.43
6020;BME280;3038;51.122;6.840;2023-05-20T13:22:19;101526.34;;;23.72;43.98
6020;BME280;3038;51.122;6.840;2023-05-20T13:24:45;101527.47;;;23.64;43.88
6020;BME280;3038;51.122;6.840;2023-05-20T13:27:10;101524.47;;;24.02;43.47
6020;BME280;3038;51.122;6.840;2023-05-20T13:29:35;101521.69;;;24.09;43.56
6020;BME280;3038;51.122;6.840;2023-05-20T13:32:01;101518.78;;;23.92;42.96
6020;BME280;3038;51.122;6.840;2023-05-20T13:34:27;101514.97;;;23.81;43.11
6020;BME280;3038;51.122;6.840;2023-05-20T13:36:52;101523.78;;;23.77;43.71
6020;BME280;3038;51.122;6.840;2023-05-20T13:39:17;101525.41;;;23.96;43.59
6020;BME280;3038;51.122;6.840;2023-05-20T13:41:43;101523.41;;;24.75;42.67
6020;BME280;3038;51.122;6.840;2023-05-20T13:44:08;101528.91;;;25.22;41.41
6020;BME280;3038;51.122;6.840;2023-05-20T13:46:34;101527.09;;;25.04;41.94
6020;BME280;3038;51.122;6.840;2023-05-20T13:48:59;101519.28;;;24.73;42.37
6020;BME280;3038;51.122;6.840;2023-05-20T13:51:25;101513.25;;;24.59;42.05
6020;BME280;3038;51.122;6.840;2023-05-20T13:53:50;101523.75;;;23.95;41.84
6020;BME280;3038;51.122;6.840;2023-05-20T13:56:15;101514.91;;;23.70;43.13
6020;BME280;3038;51.122;6.840;2023-05-20T13:58:41;101514.94;;;24.00;43.53
6020;BME280;3038;51.122;6.840;2023-05-20T14:01:06;101511.88;;;23.78;43.32
6020;BME280;3038;51.122;6.840;2023-05-20T14:03:32;101512.47;;;23.43;43.55
6020;BME280;3038;51.122;6.840;2023-05-20T14:05:59;101506.16;;;23.31;44.07
6020;BME280;3038;51.122;6.840;2023-05-20T14:08:25;101507.84;;;23.25;44.40
6020;BME280;3038;51.122;6.840;2023-05-20T14:10:50;101499.50;;;23.08;44.75
6020;BME280;3038;51.122;6.840;2023-05-20T14:13:20;101494.47;;;23.30;44.30
6020;BME280;3038;51.122;6.840;2023-05-20T14:15:45;101490.63;;;23.38;43.97
6020;BME280;3038;51.122;6.840;2023-05-20T14:18:11;101491.94;;;23.36;44.14
6020;BME280;3038;51.122;6.840;2023-05-20T14:20:36;101486.41;;;23.24;44.86
6020;BME280;3038;51.122;6.840;2023-05-20T14:23:01;101492.19;;;22.84;45.42
6020;BME280;3038;51.122;6.840;2023-05-20T14:25:27;101488.16;;;22.43;45.16
6020;BME280;3038;51.122;6.840;2023-05-20T14:27:52;101482.38;;;22.40;45.58
6020;BME280;3038;51.122;6.840;2023-05-20T14:30:18;101481.31;;;22.41;46.02
6020;BME280;3038;51.122;6.840;2023-05-20T14:32:43;101474.03;;;22.41;45.99
6020;BME280;3038;51.122;6.840;2023-05-20T14:35:09;101481.28;;;22.16;46.06
6020;BME280;3038;51.122;6.840;2023-05-20T14:37:34;101473.91;;;21.91;47.70
6020;BME280;3038;51.122;6.840;2023-05-20T14:39:59;101473.16;;;21.77;47.52
6020;BME280;3038;51.122;6.840;2023-05-20T14:42:26;101466.50;;;21.73;47.60
6020;BME280;3038;51.122;6.840;2023-05-20T14:44:51;101468.44;;;21.60;48.17
6020;BME280;3038;51.122;6.840;2023-05-20T14:47:16;101464.50;;;21.55;48.07
6020;BME280;3038;51.122;6.840;2023-05-20T14:49:46;101468.25;;;21.54;48.35
6020;BME280;3038;51.122;6.840;2023-05-20T14:52:13;101471.91;;;21.73;48.80
6020;BME280;3038;51.122;6.840;2023-05-20T14:54:38;101463.34;;;21.83;48.36
6020;BME280;3038;51.122;6.840;2023-05-20T14:57:04;101462.72;;;21.81;48.00
6020;BME280;3038;51.122;6.840;2023-05-20T14:59:30;101464.03;;;21.72;47.71
6020;BME280;3038;51.122;6.840;2023-05-20T15:01:56;101454.50;;;21.56;47.90
6020;BME280;3038;51.122;6.840;2023-05-20T15:04:21;101470.56;;;21.44;48.26
6020;BME280;3038;51.122;6.840;2023-05-20T15:06:47;101457.28;;;21.43;49.54
6020;BME280;3038;51.122;6.840;2023-05-20T15:09:12;101452.50;;;21.45;49.02
6020;BME280;3038;51.122;6.840;2023-05-20T15:11:38;101451.44;;;21.46;49.04
6020;BME280;3038;51.122;6.840;2023-05-20T15:14:03;101467.03;;;21.44;49.24
6020;BME280;3038;51.122;6.840;2023-05-20T15:16:28;101468.72;;;21.25;48.88
6020;BME280;3038;51.122;6.840;2023-05-20T15:18:54;101475.59;;;21.21;49.54
6020;BME280;3038;51.122;6.840;2023-05-20T15:21:19;101465.22;;;21.18;48.68
6020;BME280;3038;51.122;6.840;2023-05-20T15:23:45;101464.19;;;21.12;49.45
6020;BME280;3038;51.122;6.840;2023-05-20T15:26:11;101468.16;;;20.96;49.34
6020;BME280;3038;51.122;6.840;2023-05-20T15:28:37;101474.84;;;20.94;49.29
6020;BME280;3038;51.122;6.840;2023-05-20T15:31:02;101477.97;;;20.84;50.16
6020;BME280;3038;51.122;6.840;2023-05-20T15:33:28;101484.59;;;20.75;49.87
6020;BME280;3038;51.122;6.840;2023-05-20T15:35:53;101480.44;;;20.79;49.80
6020;BME280;3038;51.122;6.840;2023-05-20T15:38:21;101481.28;;;20.73;49.62
6020;BME280;3038;51.122;6.840;2023-05-20T15:40:46;101483.75;;;20.54;49.91
6020;BME280;3038;51.122;6.840;2023-05-20T15:43:14;101465.88;;;20.40;50.15
6020;BME280;3038;51.122;6.840;2023-05-20T15:45:40;101468.34;;;20.28;50.78
6020;BME280;3038;51.122;6.840;2023-05-20T15:48:05;101462.31;;;20.20;50.75
6020;BME280;3038;51.122;6.840;2023-05-20T15:50:33;101466.25;;;20.11;51.34
6020;BME280;3038;51.122;6.840;2023-05-20T15:52:59;101473.72;;;20.09;50.58
6020;BME280;3038;51.122;6.840;2023-05-20T15:55:24;101471.22;;;20.07;50.97
6020;BME280;3038;51.122;6.840;2023-05-20T15:57:50;101473.69;;;19.95;50.60
6020;BME280;3038;51.122;6.840;2023-05-20T16:00:19;101469.72;;;19.91;51.19
6020;BME280;3038;51.122;6.840;2023-05-20T16:02:45;101462.47;;;19.85;50.92
6020;BME280;3038;51.122;6.840;2023-05-20T16:05:11;101470.38;;;19.93;51.09
6020;BME280;3038;51.122;6.840;2023-05-20T16:07:36;101464.53;;;19.83;51.61
6020;BME280;3038;51.122;6.840;2023-05-20T16:10:02;101466.19;;;19.77;51.43
6020;BME280;3038;51.122;6.840;2023-05-20T16:12:28;101468.22;;;19.69;51.34
6020;BME280;3038;51.122;6.840;2023-05-20T16:14:53;101467.34;;;19.62;52.08
6020;BME280;3038;51.122;6.840;2023-05-20T16:17:18;101456.56;;;19.62;51.95
6020;BME280;3038;51.122;6.840;2023-05-20T16:19:47;101457.00;;;19.65;52.18
6020;BME280;3038;51.122;6.840;2023-05-20T16:22:13;101456.63;;;19.75;51.97
6020;BME280;3038;51.122;6.840;2023-05-20T16:24:39;101456.78;;;19.67;51.62
6020;BME280;3038;51.122;6.840;2023-05-20T16:27:05;101462.81;;;19.69;52.18
6020;BME280;3038;51.122;6.840;2023-05-20T16:29:31;101459.53;;;19.80;52.75
6020;BME280;3038;51.122;6.840;2023-05-20T16:31:56;101462.34;;;19.59;52.16
6020;BME280;3038;51.122;6.840;2023-05-20T16:34:22;101462.13;;;19.54;52.82
6020;BME280;3038;51.122;6.840;2023-05-20T16:36:47;101460.63;;;19.44;52.89
6020;BME280;3038;51.122;6.840;2023-05-20T16:39:13;101458.91;;;19.30;53.13
6020;BME280;3038;51.122;6.840;2023-05-20T16:41:39;101451.78;;;19.22;53.69
6020;BME280;3038;51.122;6.840;2023-05-20T16:44:05;101458.44;;;19.20;53.94
6020;BME280;3038;51.122;6.840;2023-05-20T16:46:30;101465.66;;;19.19;54.04
6020;BME280;3038;51.122;6.840;2023-05-20T16:48:56;101461.34;;;19.25;54.34
6020;BME280;3038;51.122;6.840;2023-05-20T16:51:23;101465.50;;;19.27;53.62
6020;BME280;3038;51.122;6.840;2023-05-20T16:53:48;101469.66;;;19.30;53.86
6020;BME280;3038;51.122;6.840;2023-05-20T16:56:14;101469.66;;;19.30;54.10
6020;BME280;3038;51.122;6.840;2023-05-20T16:58:39;101490.09;;;19.18;53.58
6020;BME280;3038;51.122;6.840;2023-05-20T17:01:05;101489.03;;;19.19;54.18
6020;BME280;3038;51.122;6.840;2023-05-20T17:03:33;101488.22;;;19.18;53.58
6020;BME280;3038;51.122;6.840;2023-05-20T17:05:58;101484.81;;;19.03;53.83
6020;BME280;3038;51.122;6.840;2023-05-20T17:08:24;101478.97;;;18.99;54.31
6020;BME280;3038;51.122;6.840;2023-05-20T17:10:49;101486.91;;;19.08;54.70
6020;BME280;3038;51.122;6.840;2023-05-20T17:13:15;101485.41;;;18.98;54.04
6020;BME280;3038;51.122;6.840;2023-05-20T17:15:41;101481.84;;;18.91;54.27
6020;BME280;3038;51.122;6.840;2023-05-20T17:18:06;101484.78;;;18.96;54.42
6020;BME280;3038;51.122;6.840;2023-05-20T17:20:32;101483.75;;;18.97;54.05
6020;BME280;3038;51.122;6.840;2023-05-20T17:22:57;101483.06;;;18.89;54.47
6020;BME280;3038;51.122;6.840;2023-05-20T17:25:22;101494.16;;;18.79;54.79
6020;BME280;3038;51.122;6.840;2023-05-20T17:27:48;101498.09;;;18.77;54.78
6020;BME280;3038;51.122;6.840;2023-05-20T17:30:13;101491.09;;;18.82;54.86
6020;BME280;3038;51.122;6.840;2023-05-20T17:32:39;101493.31;;;18.79;55.01
6020;BME280;3038;51.122;6.840;2023-05-20T17:35:05;101489.56;;;18.73;55.32
6020;BME280;3038;51.122;6.840;2023-05-20T17:37:31;101486.28;;;18.78;55.19
6020;BME280;3038;51.122;6.840;2023-05-20T17:39:56;101485.94;;;18.87;55.10
6020;BME280;3038;51.122;6.840;2023-05-20T17:42:22;101478.91;;;18.86;55.43
6020;BME280;3038;51.122;6.840;2023-05-20T17:44:47;101488.78;;;18.79;55.49
6020;BME280;3038;51.122;6.840;2023-05-20T17:47:13;101479.25;;;18.77;55.42
6020;BME280;3038;51.122;6.840;2023-05-20T17:49:38;101480.97;;;18.63;55.88
6020;BME280;3038;51.122;6.840;2023-05-20T17:52:04;101479.22;;;18.55;56.71
6020;BME280;3038;51.122;6.840;2023-05-20T17:54:29;101487.72;;;18.52;56.15
6020;BME280;3038;51.122;6.840;2023-05-20T17:56:55;101486.47;;;18.55;56.51
6020;BME280;3038;51.122;6.840;2023-05-20T17:59:20;101486.84;;;18.52;56.18
6020;BME280;3038;51.122;6.840;2023-05-20T18:01:45;101478.03;;;18.36;56.67
6020;BME280;3038;51.122;6.840;2023-05-20T18:04:11;101487.69;;;18.31;56.78
6020;BME280;3038;51.122;6.840;2023-05-20T18:06:36;101482.13;;;18.32;56.91
6020;BME280;3038;51.122;6.840;2023-05-20T18:09:02;101494.94;;;18.30;56.81
6020;BME280;3038;51.122;6.840;2023-05-20T18:11:29;101499.03;;;18.26;57.39
6020;BME280;3038;51.122;6.840;2023-05-20T18:13:57;101491.16;;;18.24;57.16
6020;BME280;3038;51.122;6.840;2023-05-20T18:16:26;101494.03;;;18.23;57.04
6020;BME280;3038;51.122;6.840;2023-05-20T18:18:55;101492.00;;;18.25;57.52
6020;BME280;3038;51.122;6.840;2023-05-20T18:21:22;101488.72;;;18.30;57.08
6020;BME280;3038;51.122;6.840;2023-05-20T18:23:47;101488.22;;;18.19;57.57
6020;BME280;3038;51.122;6.840;2023-05-20T18:26:14;101483.53;;;18.07;57.36
6020;BME280;3038;51.122;6.840;2023-05-20T18:28:39;101484.03;;;17.95;57.89
6020;BME280;3038;51.122;6.840;2023-05-20T18:31:06;101485.22;;;17.93;57.99
6020;BME280;3038;51.122;6.840;2023-05-20T18:33:31;101489.78;;;17.92;57.91
6020;BME280;3038;51.122;6.840;2023-05-20T18:35:57;101499.13;;;17.96;57.78
6020;BME280;3038;51.122;6.840;2023-05-20T18:38:22;101500.59;;;17.99;58.27
6020;BME280;3038;51.122;6.840;2023-05-20T18:40:48;101504.44;;;17.90;58.26
6020;BME280;3038;51.122;6.840;2023-05-20T18:43:13;101501.84;;;17.82;58.22
6020;BME280;3038;51.122;6.840;2023-05-20T18:45:39;101497.22;;;17.76;58.81
6020;BME280;3038;51.122;6.840;2023-05-20T18:48:04;101498.44;;;17.73;58.83
6020;BME280;3038;51.122;6.840;2023-05-20T18:50:30;101497.56;;;17.72;58.89
6020;BME280;3038;51.122;6.840;2023-05-20T18:52:56;101496.47;;;17.67;59.40
6020;BME280;3038;51.122;6.840;2023-05-20T18:55:22;101491.66;;;17.62;59.37
6020;BME280;3038;51.122;6.840;2023-05-20T18:57:48;101493.97;;;17.65;59.72
6020;BME280;3038;51.122;6.840;2023-05-20T19:00:14;101481.19;;;17.53;59.24